Airfield :
LOGIN :

Register | Disclaimer

   EN    FR    IT 

 










Legend :    VFR   Marginal VFR   IFR   Intensive IFR   Very Intensive IFR
Visi :
Ceiling :
>= 8 km
>= 3000ft
5 to 8 km
1000 to 3000 ft
1500m to 5 km
500 to 1000 ft
800 to 1500m
200 to 500 ft
< 800m
< 200 ft
Symbols :   Thunderstorms  Fog  Heavy snow  Heavy precipitations  Wind > 20 kt
SIGMETs :     Misc.  Thunderstorms  Icing  Turbulence  Mountain Waves  Volcanic Ashes







- Airport Elevation : 885 ft
- IATA code : BAS
- Download approach charts


LFSB - Bale-Mulhouse

CURRENT METAR :
  • 240130Z AUTO 16006KT 9999 OVC020 06/03 Q1028 NOSIG

EXPIRED METARs :
  • 240100Z AUTO 14005KT 9999 OVC021 06/03 Q1028 NOSIG
  • 240030Z AUTO 16007KT 140V200 9999 BKN021 BKN028 OVC035 06/03 Q1028 NOSIG
  • 240000Z AUTO 17006KT 140V200 9999 BKN022 OVC029 06/03 Q1028 NOSIG
  • 232330Z AUTO 15007KT 9999 OVC026 06/03 Q1028 NOSIG
  • 232300Z 19004KT 140V260 9999 FEW026 OVC028 06/03 Q1028 NOSIG

TAF TAF LFSB
Valid from the 24 at 00:00 until the 25 at 00:00 UTC


232300Z 2400/2424 18005KT 9999 BKN030
PROB30
TEMPO 2400/2405 -RA
PROB30
TEMPO 2405/2407 4000 MIFG
BECMG 2407/2410 CAVOK
Met : +33 3 89 90 31 11
No reported NOTAMs for that airfield.



MET'MAP, your aeronautical weather chart ! - Copyright ORBIFLY December 2007 - Disclaimer

ORBIFLY MET'MAP TEAM :

Programming & Development : Alexandra Zaïnal
Concept & Development : Baudouin d'Aumeries
Co-Development & Prog : Marc-Olivier Méhu
Technical & hardware support : Manuel Goepfert

Contact : metmap@orbifly.com




SOURCES & CREDITS :

   NOAA